sensor_id;sensor_type;location;lat;lon;timestamp;pressure;altitude;pressure_sealevel;temperature;humidity
69221;BME280;56331;51.992;20.910;2023-01-29T00:00:19;101074.98;;;21.24;32.33
69221;BME280;56331;51.992;20.910;2023-01-29T00:02:48;101070.83;;;21.24;32.31
69221;BME280;56331;51.992;20.910;2023-01-29T00:05:14;101063.91;;;21.24;32.30
69221;BME280;56331;51.992;20.910;2023-01-29T00:07:41;101062.52;;;21.24;32.29
69221;BME280;56331;51.992;20.910;2023-01-29T00:10:08;101070.83;;;21.24;32.26
69221;BME280;56331;51.992;20.910;2023-01-29T00:12:35;101059.17;;;21.25;32.18
69221;BME280;56331;51.992;20.910;2023-01-29T00:15:02;101060.89;;;21.23;32.20
69221;BME280;56331;51.992;20.910;2023-01-29T00:17:29;101058.36;;;21.24;32.25
69221;BME280;56331;51.992;20.910;2023-01-29T00:19:55;101053.63;;;21.25;32.23
69221;BME280;56331;51.992;20.910;2023-01-29T00:22:22;101049.47;;;21.25;32.18
69221;BME280;56331;51.992;20.910;2023-01-29T00:24:48;101055.02;;;21.25;32.12
69221;BME280;56331;51.992;20.910;2023-01-29T00:27:14;101048.42;;;21.23;32.14
69221;BME280;56331;51.992;20.910;2023-01-29T00:29:41;101047.05;;;21.23;32.18
69221;BME280;56331;51.992;20.910;2023-01-29T00:32:08;101044.84;;;21.23;32.06
69221;BME280;56331;51.992;20.910;2023-01-29T00:34:35;101040.11;;;21.23;32.08
69221;BME280;56331;51.992;20.910;2023-01-29T00:37:01;101024.88;;;21.23;32.01
69221;BME280;56331;51.992;20.910;2023-01-29T00:39:30;101028.45;;;21.24;32.00
69221;BME280;56331;51.992;20.910;2023-01-29T00:41:58;101028.22;;;21.23;31.96
69221;BME280;56331;51.992;20.910;2023-01-29T00:44:43;101032.95;;;21.22;31.85
69221;BME280;56331;51.992;20.910;2023-01-29T00:47:25;101028.22;;;21.23;31.81
69221;BME280;56331;51.992;20.910;2023-01-29T00:50:02;101026.26;;;21.23;31.87
69221;BME280;56331;51.992;20.910;2023-01-29T00:52:29;101029.61;;;21.23;31.84
69221;BME280;56331;51.992;20.910;2023-01-29T00:54:58;101025.75;;;21.21;31.81
69221;BME280;56331;51.992;20.910;2023-01-29T00:57:27;101022.98;;;21.21;31.87
69221;BME280;56331;51.992;20.910;2023-01-29T00:59:54;101025.18;;;21.22;31.74
69221;BME280;56331;51.992;20.910;2023-01-29T01:02:21;101030.72;;;21.22;31.72
69221;BME280;56331;51.992;20.910;2023-01-29T01:05:09;101027.72;;;21.20;31.79
69221;BME280;56331;51.992;20.910;2023-01-29T01:07:39;101021.30;;;21.23;31.71
69221;BME280;56331;51.992;20.910;2023-01-29T01:10:07;101022.98;;;21.21;31.60
69221;BME280;56331;51.992;20.910;2023-01-29T01:12:58;101021.59;;;21.21;31.67
69221;BME280;56331;51.992;20.910;2023-01-29T01:15:30;101014.67;;;21.21;31.70
69221;BME280;56331;51.992;20.910;2023-01-29T01:18:02;101006.36;;;21.21;31.58
69221;BME280;56331;51.992;20.910;2023-01-29T01:20:32;100990.88;;;21.20;31.64
69221;BME280;56331;51.992;20.910;2023-01-29T01:22:59;100992.27;;;21.20;31.68
69221;BME280;56331;51.992;20.910;2023-01-29T01:25:26;100989.23;;;21.19;31.65
69221;BME280;56331;51.992;20.910;2023-01-29T01:27:56;100977.34;;;21.18;31.65
69221;BME280;56331;51.992;20.910;2023-01-29T01:30:24;100977.60;;;21.19;31.59
69221;BME280;56331;51.992;20.910;2023-01-29T01:32:51;100983.14;;;21.19;31.52
69221;BME280;56331;51.992;20.910;2023-01-29T01:35:18;100971.22;;;21.19;31.49
69221;BME280;56331;51.992;20.910;2023-01-29T01:37:44;100978.48;;;21.17;31.42
69221;BME280;56331;51.992;20.910;2023-01-29T01:40:17;100988.92;;;21.20;31.29
69221;BME280;56331;51.992;20.910;2023-01-29T01:42:46;100980.38;;;21.19;31.28
69221;BME280;56331;51.992;20.910;2023-01-29T01:45:29;100976.53;;;21.18;31.33
69221;BME280;56331;51.992;20.910;2023-01-29T01:48:21;100983.14;;;21.19;31.32
69221;BME280;56331;51.992;20.910;2023-01-29T01:51:01;100982.57;;;21.20;31.26
69221;BME280;56331;51.992;20.910;2023-01-29T01:53:29;100978.15;;;21.19;31.27
69221;BME280;56331;51.992;20.910;2023-01-29T01:56:01;100978.15;;;21.19;31.26
69221;BME280;56331;51.992;20.910;2023-01-29T01:58:47;100968.22;;;21.18;31.26
69221;BME280;56331;51.992;20.910;2023-01-29T02:00:59;100974.56;;;21.18;31.15
69221;BME280;56331;51.992;20.910;2023-01-29T02:03:27;100972.37;;;21.18;31.19
69221;BME280;56331;51.992;20.910;2023-01-29T02:06:13;100972.14;;;21.17;31.21
69221;BME280;56331;51.992;20.910;2023-01-29T02:09:15;100969.60;;;21.18;31.25
69221;BME280;56331;51.992;20.910;2023-01-29T02:12:14;100972.14;;;21.17;31.07
69221;BME280;56331;51.992;20.910;2023-01-29T02:14:38;100971.56;;;21.17;31.07
69221;BME280;56331;51.992;20.910;2023-01-29T02:17:07;100971.63;;;21.15;31.04
69221;BME280;56331;51.992;20.910;2023-01-29T02:22:23;100982.95;;;21.16;31.09
69221;BME280;56331;51.992;20.910;2023-01-29T02:30:40;100979.68;;;21.14;31.02
69221;BME280;56331;51.992;20.910;2023-01-29T02:36:16;100971.37;;;21.14;30.97
69221;BME280;56331;51.992;20.910;2023-01-29T02:44:20;100969.98;;;21.14;31.08
69221;BME280;56331;51.992;20.910;2023-01-29T02:46:56;100959.73;;;21.14;30.91
69221;BME280;56331;51.992;20.910;2023-01-29T02:54:26;100951.16;;;21.13;30.84
69221;BME280;56331;51.992;20.910;2023-01-29T02:57:00;100950.12;;;21.12;30.90
69221;BME280;56331;51.992;20.910;2023-01-29T02:59:37;100953.13;;;21.13;30.95
69221;BME280;56331;51.992;20.910;2023-01-29T03:02:12;100960.05;;;21.13;30.98
69221;BME280;56331;51.992;20.910;2023-01-29T03:04:45;100953.36;;;21.14;30.72
69221;BME280;56331;51.992;20.910;2023-01-29T03:07:21;100950.05;;;21.14;30.43
69221;BME280;56331;51.992;20.910;2023-01-29T03:10:23;100954.67;;;21.16;30.30
69221;BME280;56331;51.992;20.910;2023-01-29T03:12:55;100954.94;;;21.17;30.14
69221;BME280;56331;51.992;20.910;2023-01-29T03:15:24;100948.25;;;21.18;30.01
69221;BME280;56331;51.992;20.910;2023-01-29T03:18:06;100946.63;;;21.17;29.91
69221;BME280;56331;51.992;20.910;2023-01-29T03:20:36;100944.36;;;21.19;29.75
69221;BME280;56331;51.992;20.910;2023-01-29T03:23:10;100933.50;;;21.20;29.56
69221;BME280;56331;51.992;20.910;2023-01-29T03:25:33;100932.13;;;21.20;29.44
69221;BME280;56331;51.992;20.910;2023-01-29T03:28:20;100932.70;;;21.20;29.40
69221;BME280;56331;51.992;20.910;2023-01-29T03:31:08;100927.16;;;21.20;29.24
69221;BME280;56331;51.992;20.910;2023-01-29T03:39:18;100924.63;;;21.21;28.94
69221;BME280;56331;51.992;20.910;2023-01-29T03:42:09;100926.58;;;21.20;28.89
69221;BME280;56331;51.992;20.910;2023-01-29T03:44:56;100924.39;;;21.20;28.80
69221;BME280;56331;51.992;20.910;2023-01-29T03:47:45;100925.77;;;21.20;28.71
69221;BME280;56331;51.992;20.910;2023-01-29T03:52:26;100919.49;;;21.17;28.50
69221;BME280;56331;51.992;20.910;2023-01-29T03:55:16;100917.53;;;21.17;28.49
69221;BME280;56331;51.992;20.910;2023-01-29T04:00:28;100928.04;;;21.18;28.36
69221;BME280;56331;51.992;20.910;2023-01-29T04:05:32;100927.30;;;21.15;28.49
69221;BME280;56331;51.992;20.910;2023-01-29T04:08:01;100921.50;;;21.14;28.73
69221;BME280;56331;51.992;20.910;2023-01-29T04:10:28;100933.73;;;21.13;28.67
69221;BME280;56331;51.992;20.910;2023-01-29T04:13:03;100937.38;;;21.11;28.77
69221;BME280;56331;51.992;20.910;2023-01-29T04:15:33;100917.99;;;21.11;28.83
69221;BME280;56331;51.992;20.910;2023-01-29T04:18:03;100915.22;;;21.11;28.93
69221;BME280;56331;51.992;20.910;2023-01-29T04:20:30;100911.06;;;21.11;29.01
69221;BME280;56331;51.992;20.910;2023-01-29T04:22:56;100909.45;;;21.10;28.99
69221;BME280;56331;51.992;20.910;2023-01-29T04:25:26;100908.88;;;21.10;29.14
69221;BME280;56331;51.992;20.910;2023-01-29T04:46:20;100888.33;;;21.11;29.23
69221;BME280;56331;51.992;20.910;2023-01-29T04:49:10;100891.94;;;21.12;29.27
69221;BME280;56331;51.992;20.910;2023-01-29T04:51:57;100889.17;;;21.12;29.31
69221;BME280;56331;51.992;20.910;2023-01-29T04:54:27;100885.02;;;21.12;29.26
69221;BME280;56331;51.992;20.910;2023-01-29T04:57:08;100889.98;;;21.12;29.32
69221;BME280;56331;51.992;20.910;2023-01-29T04:59:43;100888.33;;;21.11;29.31
69221;BME280;56331;51.992;20.910;2023-01-29T05:02:10;100894.45;;;21.11;29.42
69221;BME280;56331;51.992;20.910;2023-01-29T05:04:39;100890.05;;;21.10;29.46
69221;BME280;56331;51.992;20.910;2023-01-29T05:07:09;100878.97;;;21.10;29.33
69221;BME280;56331;51.992;20.910;2023-01-29T05:09:37;100881.74;;;21.10;29.41
69221;BME280;56331;51.992;20.910;2023-01-29T05:12:09;100878.97;;;21.10;29.43
69221;BME280;56331;51.992;20.910;2023-01-29T05:14:38;100879.78;;;21.10;29.44
69221;BME280;56331;51.992;20.910;2023-01-29T05:17:09;100875.39;;;21.09;29.48
69221;BME280;56331;51.992;20.910;2023-01-29T05:19:35;100877.33;;;21.09;29.52
69221;BME280;56331;51.992;20.910;2023-01-29T05:22:03;100874.32;;;21.08;29.42
69221;BME280;56331;51.992;20.910;2023-01-29T05:24:30;100883.44;;;21.08;29.59
69221;BME280;56331;51.992;20.910;2023-01-29T05:26:57;100885.63;;;21.09;29.58
69221;BME280;56331;51.992;20.910;2023-01-29T05:29:45;100883.70;;;21.09;29.60
69221;BME280;56331;51.992;20.910;2023-01-29T05:32:12;100883.44;;;21.08;29.58
69221;BME280;56331;51.992;20.910;2023-01-29T05:34:39;100888.17;;;21.08;29.62
69221;BME280;56331;51.992;20.910;2023-01-29T05:37:05;100888.17;;;21.08;29.75
69221;BME280;56331;51.992;20.910;2023-01-29T05:39:44;100884.82;;;21.08;29.71
69221;BME280;56331;51.992;20.910;2023-01-29T05:42:11;100867.97;;;21.07;29.72
69221;BME280;56331;51.992;20.910;2023-01-29T05:44:38;100865.20;;;21.07;29.72
69221;BME280;56331;51.992;20.910;2023-01-29T05:47:05;100857.47;;;21.07;29.86
69221;BME280;56331;51.992;20.910;2023-01-29T05:49:31;100858.27;;;21.07;29.84
69221;BME280;56331;51.992;20.910;2023-01-29T05:51:58;100852.97;;;21.08;29.83
69221;BME280;56331;51.992;20.910;2023-01-29T05:54:24;100856.89;;;21.07;29.86
69221;BME280;56331;51.992;20.910;2023-01-29T05:56:51;100859.66;;;21.07;29.80
69221;BME280;56331;51.992;20.910;2023-01-29T05:59:17;100854.12;;;21.07;29.85
69221;BME280;56331;51.992;20.910;2023-01-29T06:01:44;100854.12;;;21.07;29.80
69221;BME280;56331;51.992;20.910;2023-01-29T06:04:10;100856.31;;;21.08;29.74
69221;BME280;56331;51.992;20.910;2023-01-29T06:06:37;100857.70;;;21.08;29.41
69221;BME280;56331;51.992;20.910;2023-01-29T06:09:03;100859.89;;;21.08;29.26
69221;BME280;56331;51.992;20.910;2023-01-29T06:11:30;100856.55;;;21.09;29.18
69221;BME280;56331;51.992;20.910;2023-01-29T06:13:58;100853.77;;;21.09;29.06
69221;BME280;56331;51.992;20.910;2023-01-29T06:16:25;100862.92;;;21.09;28.87
69221;BME280;56331;51.992;20.910;2023-01-29T06:18:51;100861.78;;;21.10;28.78
69221;BME280;56331;51.992;20.910;2023-01-29T06:21:20;100867.89;;;21.10;28.73
69221;BME280;56331;51.992;20.910;2023-01-29T06:23:51;100865.93;;;21.10;28.66
69221;BME280;56331;51.992;20.910;2023-01-29T06:26:18;100868.70;;;21.10;28.59
69221;BME280;56331;51.992;20.910;2023-01-29T06:28:49;100877.83;;;21.11;28.53
69221;BME280;56331;51.992;20.910;2023-01-29T06:31:18;100873.94;;;21.12;28.45
69221;BME280;56331;51.992;20.910;2023-01-29T06:33:45;100865.62;;;21.12;28.35
69221;BME280;56331;51.992;20.910;2023-01-29T06:36:11;100865.93;;;21.10;28.27
69221;BME280;56331;51.992;20.910;2023-01-29T06:38:38;100872.28;;;21.11;28.26
69221;BME280;56331;51.992;20.910;2023-01-29T06:41:11;100873.09;;;21.11;28.24
69221;BME280;56331;51.992;20.910;2023-01-29T06:43:39;100870.66;;;21.10;28.14
69221;BME280;56331;51.992;20.910;2023-01-29T06:46:07;100872.28;;;21.11;28.09
69221;BME280;56331;51.992;20.910;2023-01-29T06:48:33;100876.44;;;21.11;28.04
69221;BME280;56331;51.992;20.910;2023-01-29T06:51:04;100871.70;;;21.11;27.99
69221;BME280;56331;51.992;20.910;2023-01-29T06:53:32;100876.70;;;21.12;27.97
69221;BME280;56331;51.992;20.910;2023-01-29T06:55:59;100874.48;;;21.11;27.95
69221;BME280;56331;51.992;20.910;2023-01-29T06:58:25;100878.89;;;21.12;27.98
69221;BME280;56331;51.992;20.910;2023-01-29T07:00:52;100882.24;;;21.12;28.12
69221;BME280;56331;51.992;20.910;2023-01-29T07:03:18;100884.44;;;21.12;28.20
69221;BME280;56331;51.992;20.910;2023-01-29T07:05:51;100877.83;;;21.11;28.31
69221;BME280;56331;51.992;20.910;2023-01-29T07:08:18;100886.13;;;21.11;28.37
69221;BME280;56331;51.992;20.910;2023-01-29T07:10:48;100881.41;;;21.11;28.48
69221;BME280;56331;51.992;20.910;2023-01-29T07:13:15;100877.25;;;21.11;28.48
69221;BME280;56331;51.992;20.910;2023-01-29T07:15:41;100875.05;;;21.11;28.54
69221;BME280;56331;51.992;20.910;2023-01-29T07:18:09;100867.00;;;21.12;28.67
69221;BME280;56331;51.992;20.910;2023-01-29T07:20:40;100853.70;;;21.11;28.79
69221;BME280;56331;51.992;20.910;2023-01-29T07:23:09;100850.38;;;21.12;28.97
69221;BME280;56331;51.992;20.910;2023-01-29T07:25:36;100849.81;;;21.12;29.09
69221;BME280;56331;51.992;20.910;2023-01-29T07:28:03;100839.30;;;21.12;29.07
69221;BME280;56331;51.992;20.910;2023-01-29T07:30:30;100842.07;;;21.12;29.19
69221;BME280;56331;51.992;20.910;2023-01-29T07:33:04;100846.77;;;21.11;29.18
69221;BME280;56331;51.992;20.910;2023-01-29T07:35:34;100855.34;;;21.12;29.13
69221;BME280;56331;51.992;20.910;2023-01-29T07:37:59;100853.39;;;21.13;29.11
69221;BME280;56331;51.992;20.910;2023-01-29T07:40:26;100846.46;;;21.13;29.16
69221;BME280;56331;51.992;20.910;2023-01-29T07:43:00;100843.69;;;21.13;29.14
69221;BME280;56331;51.992;20.910;2023-01-29T07:45:28;100853.63;;;21.14;29.10
69221;BME280;56331;51.992;20.910;2023-01-29T07:47:55;100866.09;;;21.14;29.10
69221;BME280;56331;51.992;20.910;2023-01-29T07:50:28;100871.89;;;21.15;29.10
69221;BME280;56331;51.992;20.910;2023-01-29T07:52:55;100862.77;;;21.14;29.09
69221;BME280;56331;51.992;20.910;2023-01-29T07:55:22;100869.12;;;21.15;29.05
69221;BME280;56331;51.992;20.910;2023-01-29T07:57:55;100871.32;;;21.15;29.03
69221;BME280;56331;51.992;20.910;2023-01-29T08:00:22;100871.89;;;21.15;28.98
69221;BME280;56331;51.992;20.910;2023-01-29T08:02:49;100872.13;;;21.16;28.97
69221;BME280;56331;51.992;20.910;2023-01-29T08:05:16;100871.89;;;21.15;29.50
69221;BME280;56331;51.992;20.910;2023-01-29T08:07:42;100869.70;;;21.14;29.76
69221;BME280;56331;51.992;20.910;2023-01-29T08:10:10;100858.62;;;21.14;29.96
69221;BME280;56331;51.992;20.910;2023-01-29T08:12:36;100850.05;;;21.13;30.00
69221;BME280;56331;51.992;20.910;2023-01-29T08:15:03;100844.50;;;21.13;30.18
69221;BME280;56331;51.992;20.910;2023-01-29T08:17:30;100846.46;;;21.13;30.30
69221;BME280;56331;51.992;20.910;2023-01-29T08:19:56;100846.46;;;21.13;30.35
69221;BME280;56331;51.992;20.910;2023-01-29T08:22:22;100849.47;;;21.14;30.54
69221;BME280;56331;51.992;20.910;2023-01-29T08:24:49;100846.46;;;21.13;30.59
69221;BME280;56331;51.992;20.910;2023-01-29T08:27:15;100839.53;;;21.13;30.63
69221;BME280;56331;51.992;20.910;2023-01-29T08:29:42;100833.77;;;21.12;30.75
69221;BME280;56331;51.992;20.910;2023-01-29T08:32:09;100832.03;;;21.13;30.81
69221;BME280;56331;51.992;20.910;2023-01-29T08:34:36;100835.95;;;21.12;30.96
69221;BME280;56331;51.992;20.910;2023-01-29T08:37:02;100836.53;;;21.12;31.11
69221;BME280;56331;51.992;20.910;2023-01-29T08:39:29;100833.77;;;21.12;31.17
69221;BME280;56331;51.992;20.910;2023-01-29T08:41:55;100836.19;;;21.13;31.08
69221;BME280;56331;51.992;20.910;2023-01-29T08:44:25;100831.45;;;21.14;31.14
69221;BME280;56331;51.992;20.910;2023-01-29T08:46:51;100829.53;;;21.14;30.83
69221;BME280;56331;51.992;20.910;2023-01-29T08:49:18;100829.53;;;21.14;30.95
69221;BME280;56331;51.992;20.910;2023-01-29T08:51:44;100836.45;;;21.14;30.76
69221;BME280;56331;51.992;20.910;2023-01-29T08:54:10;100835.06;;;21.14;30.65
69221;BME280;56331;51.992;20.910;2023-01-29T08:56:37;100842.23;;;21.15;30.43
69221;BME280;56331;51.992;20.910;2023-01-29T08:59:04;100838.88;;;21.16;30.25
69221;BME280;56331;51.992;20.910;2023-01-29T09:01:31;100831.14;;;21.15;30.15
69221;BME280;56331;51.992;20.910;2023-01-29T09:03:57;100833.11;;;21.15;30.10
69221;BME280;56331;51.992;20.910;2023-01-29T09:06:24;100829.27;;;21.13;30.04
69221;BME280;56331;51.992;20.910;2023-01-29T09:08:50;100821.77;;;21.14;29.93
69221;BME280;56331;51.992;20.910;2023-01-29T09:11:17;100822.03;;;21.15;29.92
69221;BME280;56331;51.992;20.910;2023-01-29T09:13:43;100821.22;;;21.14;29.75
69221;BME280;56331;51.992;20.910;2023-01-29T09:16:10;100821.22;;;21.14;29.74
69221;BME280;56331;51.992;20.910;2023-01-29T09:18:36;100818.99;;;21.14;30.22
69221;BME280;56331;51.992;20.910;2023-01-29T09:21:03;100806.87;;;21.12;31.95
69221;BME280;56331;51.992;20.910;2023-01-29T09:23:30;100808.83;;;21.12;33.07
69221;BME280;56331;51.992;20.910;2023-01-29T09:25:57;100796.36;;;21.12;34.62
69221;BME280;56331;51.992;20.910;2023-01-29T09:28:23;100783.32;;;21.12;35.95
69221;BME280;56331;51.992;20.910;2023-01-29T09:30:50;100776.89;;;21.14;35.08
69221;BME280;56331;51.992;20.910;2023-01-29T09:33:16;100762.70;;;21.16;34.30
69221;BME280;56331;51.992;20.910;2023-01-29T09:35:43;100760.19;;;21.17;33.39
69221;BME280;56331;51.992;20.910;2023-01-29T09:38:13;100757.56;;;21.20;32.74
69221;BME280;56331;51.992;20.910;2023-01-29T09:40:55;100763.11;;;21.20;32.22
69221;BME280;56331;51.992;20.910;2023-01-29T09:43:26;100766.69;;;21.21;31.86
69221;BME280;56331;51.992;20.910;2023-01-29T09:45:56;100764.49;;;21.20;31.54
69221;BME280;56331;51.992;20.910;2023-01-29T09:48:25;100763.19;;;21.18;30.93
69221;BME280;56331;51.992;20.910;2023-01-29T09:50:52;100759.92;;;21.16;30.54
69221;BME280;56331;51.992;20.910;2023-01-29T09:53:41;100762.70;;;21.16;30.16
69221;BME280;56331;51.992;20.910;2023-01-29T09:56:17;100760.73;;;21.16;29.72
69221;BME280;56331;51.992;20.910;2023-01-29T09:58:46;100758.80;;;21.17;29.38
69221;BME280;56331;51.992;20.910;2023-01-29T10:01:17;100753.00;;;21.16;29.02
69221;BME280;56331;51.992;20.910;2023-01-29T10:03:48;100747.45;;;21.16;28.88
69221;BME280;56331;51.992;20.910;2023-01-29T10:06:42;100741.42;;;21.14;28.95
69221;BME280;56331;51.992;20.910;2023-01-29T10:14:56;100734.66;;;21.09;29.15
69221;BME280;56331;51.992;20.910;2023-01-29T10:20:12;100728.08;;;21.07;29.31
69221;BME280;56331;51.992;20.910;2023-01-29T10:25:41;100726.92;;;21.08;29.29
69221;BME280;56331;51.992;20.910;2023-01-29T10:28:29;100722.77;;;21.08;29.05
69221;BME280;56331;51.992;20.910;2023-01-29T10:30:58;100725.54;;;21.08;29.09
69221;BME280;56331;51.992;20.910;2023-01-29T10:33:32;100725.54;;;21.08;29.13
69221;BME280;56331;51.992;20.910;2023-01-29T10:35:59;100721.38;;;21.08;29.13
69221;BME280;56331;51.992;20.910;2023-01-29T10:38:46;100720.00;;;21.08;29.18
69221;BME280;56331;51.992;20.910;2023-01-29T10:44:00;100710.88;;;21.08;29.31
69221;BME280;56331;51.992;20.910;2023-01-29T10:49:41;100710.88;;;21.08;29.32
69221;BME280;56331;51.992;20.910;2023-01-29T10:52:20;100707.04;;;21.06;29.36
69221;BME280;56331;51.992;20.910;2023-01-29T10:54:54;100701.77;;;21.07;29.34
69221;BME280;56331;51.992;20.910;2023-01-29T10:57:34;100705.11;;;21.07;29.35
69221;BME280;56331;51.992;20.910;2023-01-29T11:00:00;100702.66;;;21.05;29.45
69221;BME280;56331;51.992;20.910;2023-01-29T11:02:25;100703.80;;;21.04;29.54
69221;BME280;56331;51.992;20.910;2023-01-29T11:04:52;100702.42;;;21.04;29.50
69221;BME280;56331;51.992;20.910;2023-01-29T11:07:20;100695.23;;;21.03;29.49
69221;BME280;56331;51.992;20.910;2023-01-29T11:10:03;100696.04;;;21.04;29.55
69221;BME280;56331;51.992;20.910;2023-01-29T11:12:30;100695.50;;;21.04;29.53
69221;BME280;56331;51.992;20.910;2023-01-29T11:15:06;100689.69;;;21.03;29.50
69221;BME280;56331;51.992;20.910;2023-01-29T11:17:35;100683.03;;;21.04;29.52
69221;BME280;56331;51.992;20.910;2023-01-29T11:20:04;100675.27;;;21.04;29.46
69221;BME280;56331;51.992;20.910;2023-01-29T11:22:31;100671.95;;;21.04;29.49
69221;BME280;56331;51.992;20.910;2023-01-29T11:25:18;100681.06;;;21.05;29.72
69221;BME280;56331;51.992;20.910;2023-01-29T11:27:53;100679.69;;;21.05;29.72
69221;BME280;56331;51.992;20.910;2023-01-29T11:35:33;100671.61;;;21.06;29.63
69221;BME280;56331;51.992;20.910;2023-01-29T11:40:51;100656.38;;;21.06;29.52
69221;BME280;56331;51.992;20.910;2023-01-29T11:43:29;100642.87;;;21.04;29.52
69221;BME280;56331;51.992;20.910;2023-01-29T11:46:04;100637.56;;;21.05;29.68
69221;BME280;56331;51.992;20.910;2023-01-29T11:48:45;100625.90;;;21.06;29.56
69221;BME280;56331;51.992;20.910;2023-01-29T11:51:25;100633.41;;;21.05;29.52
69221;BME280;56331;51.992;20.910;2023-01-29T11:53:59;100630.06;;;21.06;29.56
69221;BME280;56331;51.992;20.910;2023-01-29T11:56:33;100618.17;;;21.05;29.62
69221;BME280;56331;51.992;20.910;2023-01-29T11:59:00;100615.98;;;21.05;29.61
69221;BME280;56331;51.992;20.910;2023-01-29T12:01:32;100618.17;;;21.05;29.53
69221;BME280;56331;51.992;20.910;2023-01-29T12:03:59;100616.20;;;21.06;29.41
69221;BME280;56331;51.992;20.910;2023-01-29T12:06:34;100616.20;;;21.06;29.12
69221;BME280;56331;51.992;20.910;2023-01-29T12:09:08;100612.77;;;21.09;28.95
69221;BME280;56331;51.992;20.910;2023-01-29T12:11:32;100601.70;;;21.09;28.80
69221;BME280;56331;51.992;20.910;2023-01-29T12:14:00;100607.50;;;21.10;28.68
69221;BME280;56331;51.992;20.910;2023-01-29T12:16:57;100606.60;;;21.12;28.55
69221;BME280;56331;51.992;20.910;2023-01-29T12:19:39;100599.91;;;21.13;28.49
69221;BME280;56331;51.992;20.910;2023-01-29T12:22:20;100592.66;;;21.14;28.34
69221;BME280;56331;51.992;20.910;2023-01-29T12:30:16;100593.55;;;21.12;28.00
69221;BME280;56331;51.992;20.910;2023-01-29T12:32:55;100578.55;;;21.13;28.01
69221;BME280;56331;51.992;20.910;2023-01-29T12:35:27;100574.16;;;21.12;28.08
69221;BME280;56331;51.992;20.910;2023-01-29T12:38:16;100564.78;;;21.11;28.27
69221;BME280;56331;51.992;20.910;2023-01-29T12:40:45;100570.10;;;21.10;28.31
69221;BME280;56331;51.992;20.910;2023-01-29T12:43:22;100572.06;;;21.09;28.41
69221;BME280;56331;51.992;20.910;2023-01-29T12:45:49;100565.45;;;21.08;28.49
69221;BME280;56331;51.992;20.910;2023-01-29T12:48:30;100569.61;;;21.08;28.50
69221;BME280;56331;51.992;20.910;2023-01-29T12:50:54;100569.37;;;21.07;28.55
69221;BME280;56331;51.992;20.910;2023-01-29T12:53:30;100571.08;;;21.05;28.57
69221;BME280;56331;51.992;20.910;2023-01-29T12:56:02;100552.84;;;21.04;28.61
69221;BME280;56331;51.992;20.910;2023-01-29T12:58:33;100549.24;;;21.04;29.48
69221;BME280;56331;51.992;20.910;2023-01-29T13:01:04;100545.34;;;21.05;29.80
69221;BME280;56331;51.992;20.910;2023-01-29T13:03:47;100537.03;;;21.05;29.54
69221;BME280;56331;51.992;20.910;2023-01-29T13:06:22;100536.14;;;21.07;29.46
69221;BME280;56331;51.992;20.910;2023-01-29T13:08:53;100535.30;;;21.06;29.29
69221;BME280;56331;51.992;20.910;2023-01-29T13:11:30;100535.08;;;21.05;29.29
69221;BME280;56331;51.992;20.910;2023-01-29T13:14:01;100536.23;;;21.04;29.33
69221;BME280;56331;51.992;20.910;2023-01-29T13:16:32;100532.08;;;21.04;29.30
69221;BME280;56331;51.992;20.910;2023-01-29T13:19:02;100534.59;;;21.03;29.32
69221;BME280;56331;51.992;20.910;2023-01-29T13:21:38;100531.23;;;21.04;29.29
69221;BME280;56331;51.992;20.910;2023-01-29T13:24:11;100540.70;;;21.03;29.28
69221;BME280;56331;51.992;20.910;2023-01-29T13:26:39;100543.47;;;21.03;29.39
69221;BME280;56331;51.992;20.910;2023-01-29T13:29:22;100544.86;;;21.03;29.35
69221;BME280;56331;51.992;20.910;2023-01-29T13:31:49;100542.09;;;21.03;29.33
69221;BME280;56331;51.992;20.910;2023-01-29T13:36:50;100546.24;;;21.03;29.33
69221;BME280;56331;51.992;20.910;2023-01-29T13:39:29;100549.02;;;21.03;29.31
69221;BME280;56331;51.992;20.910;2023-01-29T13:41:58;100545.44;;;21.02;29.31
69221;BME280;56331;51.992;20.910;2023-01-29T13:44:33;100557.09;;;21.02;29.27
69221;BME280;56331;51.992;20.910;2023-01-29T13:47:09;100553.48;;;21.01;29.30
69221;BME280;56331;51.992;20.910;2023-01-29T13:52:34;100544.63;;;21.02;29.28
69221;BME280;56331;51.992;20.910;2023-01-29T13:55:04;100536.55;;;21.03;29.29
69221;BME280;56331;51.992;20.910;2023-01-29T14:00:03;100520.51;;;21.02;29.26
69221;BME280;56331;51.992;20.910;2023-01-29T14:02:30;100514.70;;;21.01;29.27
69221;BME280;56331;51.992;20.910;2023-01-29T14:08:00;100521.89;;;21.02;29.24
69221;BME280;56331;51.992;20.910;2023-01-29T14:10:31;100511.13;;;21.01;29.22
69221;BME280;56331;51.992;20.910;2023-01-29T14:15:34;100499.73;;;21.02;29.28
69221;BME280;56331;51.992;20.910;2023-01-29T14:23:33;100524.31;;;21.04;29.28
69221;BME280;56331;51.992;20.910;2023-01-29T14:26:19;100527.92;;;21.04;29.29
69221;BME280;56331;51.992;20.910;2023-01-29T14:31:46;100539.45;;;21.06;29.26
69221;BME280;56331;51.992;20.910;2023-01-29T14:37:01;100546.73;;;21.05;28.95
69221;BME280;56331;51.992;20.910;2023-01-29T14:39:34;100545.92;;;21.04;28.87
69221;BME280;56331;51.992;20.910;2023-01-29T14:42:03;100538.42;;;21.05;28.77
69221;BME280;56331;51.992;20.910;2023-01-29T14:53:18;100517.30;;;21.06;28.48
69221;BME280;56331;51.992;20.910;2023-01-29T14:55:51;100497.91;;;21.06;28.34
69221;BME280;56331;51.992;20.910;2023-01-29T14:58:17;100496.52;;;21.06;28.28